This is the latest recevied weather packets stored in our database for station/object K1LVA. If no packets are shown the sender has not sent any weather packets the latest 1 day(s).
| Time | Temp. | Humidity | Pressure | Rain* | Wind** | Luminosity | Snow |
|---|---|---|---|---|---|---|---|
| 1778087270 | 26.11° C | 66% | 1016.5 hPa | 0 mm | - | 384 W/m² | - |
| 1778085755 | 24.44° C | 71% | 1016.5 hPa | 0 mm | - | 257 W/m² | - |
| 1778083633 | 25° C | 73% | 1016.8 hPa | 0 mm | - | 427 W/m² | - |
| 1778083028 | 23.89° C | 75% | 1016.8 hPa | 0 mm | - | 350 W/m² | - |
| 1778081586 | 23.89° C | 74% | 1016.4 hPa | 0 mm | - | 280 W/m² | - |
| 1778080072 | 22.78° C | 76% | 1016.1 hPa | 0 mm | - | 444 W/m² | - |
| 1778079466 | 22.78° C | 78% | 1016.1 hPa | 0 mm | - | 341 W/m² | - |
| 1778078860 | 22.22° C | 78% | 1016.3 hPa | 0 mm | - | 255 W/m² | - |
| 1778078557 | 22.22° C | 79% | 1016.4 hPa | 0 mm | - | 212 W/m² | - |
| 1778077952 | 22.22° C | 80% | 1016.2 hPa | 0 mm | - | 291 W/m² | - |
| 1778077348 | 21.67° C | 80% | 1016.4 hPa | 0 mm | - | 276 W/m² | - |
| 1778076744 | 21.11° C | 81% | 1016.5 hPa | 0 mm | - | 288 W/m² | - |
| 1778076138 | 21.11° C | 82% | 1016.3 hPa | 0 mm | - | 214 W/m² | - |
| 1778075531 | 20.56° C | 82% | 1016.2 hPa | 0 mm | - | 235 W/m² | - |
| 1778074924 | 20.56° C | 82% | 1016.2 hPa | 0 mm | - | 198 W/m² | - |
| 1778073712 | 20° C | 82% | 1016 hPa | 0 mm | - | 539 W/m² | - |
| 1778072500 | 19.44° C | 86% | 1016.1 hPa | 0 mm | - | 203 W/m² | - |
| 1778070383 | 17.78° C | 90% | 1016.1 hPa | 0 mm | - | 88 W/m² | - |
| 1778070081 | 17.22° C | 91% | 1015.9 hPa | 0 mm | - | 98 W/m² | - |
| 1778069173 | 16.11° C | 95% | 1015.9 hPa | 0 mm | - | 88 W/m² | - |
| 1778068870 | 16.11° C | 95% | 1015.4 hPa | 0 mm | - | 54 W/m² | - |
| 1778068266 | 15° C | 97% | 1015.6 hPa | 0 mm | - | 69 W/m² | - |
| 1778067963 | 15° C | 97% | 1015.7 hPa | 0 mm | - | 38 W/m² | - |
| 1778067661 | 14.44° C | 97% | 1015.7 hPa | 0 mm | - | 32 W/m² | - |
| 1778066450 | 13.89° C | 97% | 1015.1 hPa | 0 mm | - | 26 W/m² | - |
* Rain latest hour (hover to see other rain measurements)
** Current wind speed in m/s (hover to see current wind gust speed)